Rosston, Oklahoma
Current Conditions -  °F | °C
As of 3:15 AM on Friday 24 Oct 2014 (Local Time) from KWWR Reporting Station
Clear Clear  
Wind Chill: 61°   Ceiling: Unl
Heat Index: 61°   Visibility: 10mi
Dew Point: 57°   Wind: 6mph
Humidity: 88%   Direction: 230°SW
Pressure: 30.1"   Gusts: NA
Location:  36.81°N, 99.93°W
Report Text: KWWR 240815Z AUTO 23005KT 10SM CLR 16/14 A3010 RMK AO2
Loading
Personal Weather Stations






























Interactive Weather Map
Tropical Storm Tracking
New forecast layout! Learn more

10-Day Weather Forecast

Advertisements
Track Severe Weather on mobile